sensor_id;sensor_type;location;lat;lon;timestamp;P1;durP1;ratioP1;P2;durP2;ratioP2
71162;SDS011;58858;50.948;6.566;2022-09-21T00:07:33;11.95;;;6.20;;
71162;SDS011;58858;50.948;6.566;2022-09-21T00:17:35;8.10;;;5.82;;
71162;SDS011;58858;50.948;6.566;2022-09-21T00:27:36;7.40;;;4.88;;
71162;SDS011;58858;50.948;6.566;2022-09-21T00:37:38;6.85;;;3.17;;
71162;SDS011;58858;50.948;6.566;2022-09-21T00:47:40;10.05;;;4.28;;
71162;SDS011;58858;50.948;6.566;2022-09-21T00:57:42;7.25;;;3.30;;
71162;SDS011;58858;50.948;6.566;2022-09-21T01:07:46;8.55;;;5.15;;
71162;SDS011;58858;50.948;6.566;2022-09-21T01:38:44;5.95;;;4.00;;
71162;SDS011;58858;50.948;6.566;2022-09-21T01:48:51;8.50;;;3.90;;
71162;SDS011;58858;50.948;6.566;2022-09-21T01:59:00;9.00;;;4.47;;
71162;SDS011;58858;50.948;6.566;2022-09-21T02:09:03;7.28;;;4.50;;
71162;SDS011;58858;50.948;6.566;2022-09-21T02:19:17;6.88;;;3.30;;
71162;SDS011;58858;50.948;6.566;2022-09-21T02:29:24;15.32;;;4.70;;
71162;SDS011;58858;50.948;6.566;2022-09-21T02:39:41;7.72;;;3.75;;
71162;SDS011;58858;50.948;6.566;2022-09-21T02:49:50;8.68;;;3.35;;
71162;SDS011;58858;50.948;6.566;2022-09-21T03:09:55;13.10;;;4.57;;
71162;SDS011;58858;50.948;6.566;2022-09-21T03:19:56;9.57;;;2.67;;
71162;SDS011;58858;50.948;6.566;2022-09-21T03:29:57;8.02;;;2.90;;
71162;SDS011;58858;50.948;6.566;2022-09-21T03:39:58;5.57;;;3.30;;
71162;SDS011;58858;50.948;6.566;2022-09-21T03:49:59;4.97;;;2.92;;
71162;SDS011;58858;50.948;6.566;2022-09-21T04:00:01;7.35;;;2.78;;
71162;SDS011;58858;50.948;6.566;2022-09-21T04:10:05;6.28;;;3.55;;
71162;SDS011;58858;50.948;6.566;2022-09-21T04:20:08;5.45;;;3.33;;
71162;SDS011;58858;50.948;6.566;2022-09-21T04:30:10;7.47;;;2.30;;
71162;SDS011;58858;50.948;6.566;2022-09-21T04:40:12;3.35;;;1.88;;
71162;SDS011;58858;50.948;6.566;2022-09-21T04:50:14;2.55;;;2.08;;
71162;SDS011;58858;50.948;6.566;2022-09-21T05:00:15;5.03;;;2.30;;
71162;SDS011;58858;50.948;6.566;2022-09-21T05:10:17;7.05;;;3.28;;
71162;SDS011;58858;50.948;6.566;2022-09-21T05:20:18;10.65;;;4.25;;
71162;SDS011;58858;50.948;6.566;2022-09-21T05:30:20;9.93;;;4.32;;
71162;SDS011;58858;50.948;6.566;2022-09-21T05:40:21;7.43;;;4.28;;
71162;SDS011;58858;50.948;6.566;2022-09-21T06:00:27;9.10;;;4.30;;
71162;SDS011;58858;50.948;6.566;2022-09-21T06:10:55;19.75;;;7.18;;
71162;SDS011;58858;50.948;6.566;2022-09-21T06:20:57;64.47;;;10.13;;
71162;SDS011;58858;50.948;6.566;2022-09-21T06:30:58;26.08;;;8.57;;
71162;SDS011;58858;50.948;6.566;2022-09-21T06:41:02;19.08;;;7.95;;
71162;SDS011;58858;50.948;6.566;2022-09-21T06:51:04;18.13;;;8.47;;
71162;SDS011;58858;50.948;6.566;2022-09-21T07:01:06;17.65;;;6.90;;
71162;SDS011;58858;50.948;6.566;2022-09-21T07:11:08;21.17;;;7.78;;
71162;SDS011;58858;50.948;6.566;2022-09-21T07:21:10;24.17;;;9.15;;
71162;SDS011;58858;50.948;6.566;2022-09-21T07:31:12;16.92;;;7.72;;
71162;SDS011;58858;50.948;6.566;2022-09-21T07:41:15;14.80;;;7.15;;
71162;SDS011;58858;50.948;6.566;2022-09-21T07:51:16;18.77;;;6.70;;
71162;SDS011;58858;50.948;6.566;2022-09-21T08:01:17;14.15;;;7.50;;
71162;SDS011;58858;50.948;6.566;2022-09-21T08:11:19;16.13;;;7.35;;
71162;SDS011;58858;50.948;6.566;2022-09-21T08:21:21;39.63;;;29.13;;
71162;SDS011;58858;50.948;6.566;2022-09-21T08:31:23;26.45;;;18.00;;
71162;SDS011;58858;50.948;6.566;2022-09-21T08:52:06;13.70;;;5.90;;
71162;SDS011;58858;50.948;6.566;2022-09-21T09:02:19;12.18;;;5.72;;
71162;SDS011;58858;50.948;6.566;2022-09-21T09:12:44;15.73;;;6.82;;
71162;SDS011;58858;50.948;6.566;2022-09-21T09:23:01;23.85;;;8.00;;
71162;SDS011;58858;50.948;6.566;2022-09-21T09:33:18;6.72;;;4.47;;
71162;SDS011;58858;50.948;6.566;2022-09-21T09:54:03;10.50;;;4.60;;
71162;SDS011;58858;50.948;6.566;2022-09-21T10:04:22;19.05;;;5.90;;
71162;SDS011;58858;50.948;6.566;2022-09-21T10:14:23;17.52;;;4.80;;
71162;SDS011;58858;50.948;6.566;2022-09-21T10:24:34;8.57;;;4.15;;
71162;SDS011;58858;50.948;6.566;2022-09-21T10:34:37;6.80;;;3.88;;
71162;SDS011;58858;50.948;6.566;2022-09-21T10:44:40;6.32;;;2.63;;
71162;SDS011;58858;50.948;6.566;2022-09-21T10:54:43;8.52;;;2.92;;
71162;SDS011;58858;50.948;6.566;2022-09-21T11:04:45;4.88;;;2.90;;
71162;SDS011;58858;50.948;6.566;2022-09-21T11:14:53;7.30;;;3.70;;
71162;SDS011;58858;50.948;6.566;2022-09-21T11:56:13;9.60;;;4.18;;
71162;SDS011;58858;50.948;6.566;2022-09-21T12:26:57;10.18;;;2.70;;
71162;SDS011;58858;50.948;6.566;2022-09-21T12:47:48;6.82;;;1.50;;
71162;SDS011;58858;50.948;6.566;2022-09-21T12:58:12;3.83;;;1.60;;
71162;SDS011;58858;50.948;6.566;2022-09-21T13:08:29;4.78;;;1.88;;
71162;SDS011;58858;50.948;6.566;2022-09-21T13:18:39;3.85;;;1.95;;
71162;SDS011;58858;50.948;6.566;2022-09-21T13:28:42;4.88;;;1.27;;
71162;SDS011;58858;50.948;6.566;2022-09-21T13:59:20;4.85;;;1.42;;
71162;SDS011;58858;50.948;6.566;2022-09-21T14:09:28;2.05;;;0.80;;
71162;SDS011;58858;50.948;6.566;2022-09-21T14:39:53;1.45;;;0.80;;
71162;SDS011;58858;50.948;6.566;2022-09-21T14:50:11;2.22;;;0.98;;
71162;SDS011;58858;50.948;6.566;2022-09-21T15:00:24;3.55;;;0.90;;
71162;SDS011;58858;50.948;6.566;2022-09-21T15:21:28;3.17;;;0.93;;
71162;SDS011;58858;50.948;6.566;2022-09-21T15:31:35;1.42;;;0.75;;
71162;SDS011;58858;50.948;6.566;2022-09-21T15:41:42;2.80;;;0.70;;
71162;SDS011;58858;50.948;6.566;2022-09-21T15:51:44;2.17;;;0.55;;
71162;SDS011;58858;50.948;6.566;2022-09-21T16:01:47;3.67;;;0.82;;
71162;SDS011;58858;50.948;6.566;2022-09-21T16:11:52;2.45;;;0.55;;
71162;SDS011;58858;50.948;6.566;2022-09-21T16:22:01;3.42;;;0.75;;
71162;SDS011;58858;50.948;6.566;2022-09-21T16:42:17;1.98;;;0.90;;
71162;SDS011;58858;50.948;6.566;2022-09-21T16:52:19;3.15;;;1.00;;
71162;SDS011;58858;50.948;6.566;2022-09-21T17:02:21;4.57;;;0.90;;
71162;SDS011;58858;50.948;6.566;2022-09-21T17:12:23;4.25;;;1.30;;
71162;SDS011;58858;50.948;6.566;2022-09-21T17:22:24;3.75;;;1.15;;
71162;SDS011;58858;50.948;6.566;2022-09-21T17:32:25;4.18;;;0.85;;
71162;SDS011;58858;50.948;6.566;2022-09-21T17:42:26;2.42;;;0.95;;
71162;SDS011;58858;50.948;6.566;2022-09-21T17:52:28;2.25;;;1.05;;
71162;SDS011;58858;50.948;6.566;2022-09-21T18:02:47;5.55;;;2.25;;
71162;SDS011;58858;50.948;6.566;2022-09-21T18:13:04;8.23;;;3.60;;
71162;SDS011;58858;50.948;6.566;2022-09-21T18:23:17;2.95;;;1.25;;
71162;SDS011;58858;50.948;6.566;2022-09-21T18:33:33;3.45;;;1.23;;
71162;SDS011;58858;50.948;6.566;2022-09-21T18:44:33;5.55;;;1.10;;
71162;SDS011;58858;50.948;6.566;2022-09-21T18:54:17;3.50;;;1.35;;
71162;SDS011;58858;50.948;6.566;2022-09-21T19:04:19;2.88;;;1.42;;
71162;SDS011;58858;50.948;6.566;2022-09-21T19:14:23;5.90;;;1.45;;
71162;SDS011;58858;50.948;6.566;2022-09-21T19:25:00;5.30;;;2.30;;
71162;SDS011;58858;50.948;6.566;2022-09-21T19:35:38;2.28;;;1.38;;
71162;SDS011;58858;50.948;6.566;2022-09-21T19:56:07;3.35;;;1.85;;
71162;SDS011;58858;50.948;6.566;2022-09-21T20:06:35;9.73;;;2.20;;
71162;SDS011;58858;50.948;6.566;2022-09-21T20:16:53;12.63;;;2.47;;
71162;SDS011;58858;50.948;6.566;2022-09-21T20:27:00;3.80;;;2.17;;
71162;SDS011;58858;50.948;6.566;2022-09-21T20:37:04;6.30;;;2.53;;
71162;SDS011;58858;50.948;6.566;2022-09-21T20:47:09;9.07;;;2.15;;
71162;SDS011;58858;50.948;6.566;2022-09-21T20:57:11;3.25;;;2.13;;
71162;SDS011;58858;50.948;6.566;2022-09-21T21:07:12;4.63;;;2.70;;
71162;SDS011;58858;50.948;6.566;2022-09-21T21:17:13;6.05;;;2.40;;
71162;SDS011;58858;50.948;6.566;2022-09-21T21:27:16;3.80;;;2.50;;
71162;SDS011;58858;50.948;6.566;2022-09-21T21:37:18;5.82;;;2.67;;
71162;SDS011;58858;50.948;6.566;2022-09-21T21:47:24;2.95;;;1.98;;
71162;SDS011;58858;50.948;6.566;2022-09-21T21:57:25;4.18;;;1.90;;
71162;SDS011;58858;50.948;6.566;2022-09-21T22:07:26;8.00;;;2.58;;
71162;SDS011;58858;50.948;6.566;2022-09-21T22:17:27;5.55;;;2.92;;
71162;SDS011;58858;50.948;6.566;2022-09-21T22:27:28;5.25;;;2.47;;
71162;SDS011;58858;50.948;6.566;2022-09-21T22:37:29;4.25;;;2.60;;
71162;SDS011;58858;50.948;6.566;2022-09-21T22:47:31;3.20;;;2.20;;
71162;SDS011;58858;50.948;6.566;2022-09-21T22:57:32;6.68;;;3.58;;
71162;SDS011;58858;50.948;6.566;2022-09-21T23:07:33;7.32;;;3.53;;
71162;SDS011;58858;50.948;6.566;2022-09-21T23:17:34;6.57;;;2.60;;
71162;SDS011;58858;50.948;6.566;2022-09-21T23:27:35;6.22;;;3.38;;
71162;SDS011;58858;50.948;6.566;2022-09-21T23:37:36;10.77;;;4.03;;
71162;SDS011;58858;50.948;6.566;2022-09-21T23:47:37;6.38;;;2.60;;
71162;SDS011;58858;50.948;6.566;2022-09-21T23:57:40;7.40;;;3.38;;
